sensor_id;sensor_type;location;lat;lon;timestamp;temperature;humidity
30049;DHT22;16879;50.852;15.602;2022-11-15T00:03:16;5.40;1.00
30049;DHT22;16879;50.852;15.602;2022-11-15T00:05:41;5.40;1.00
30049;DHT22;16879;50.852;15.602;2022-11-15T00:08:07;5.30;1.00
30049;DHT22;16879;50.852;15.602;2022-11-15T00:10:33;5.20;99.90
30049;DHT22;16879;50.852;15.602;2022-11-15T00:12:59;5.20;99.90
30049;DHT22;16879;50.852;15.602;2022-11-15T00:15:24;5.20;1.00
30049;DHT22;16879;50.852;15.602;2022-11-15T00:17:50;5.20;1.00
30049;DHT22;16879;50.852;15.602;2022-11-15T00:20:16;5.20;1.00
30049;DHT22;16879;50.852;15.602;2022-11-15T00:22:42;5.10;1.00
30049;DHT22;16879;50.852;15.602;2022-11-15T00:25:08;5.00;1.00
30049;DHT22;16879;50.852;15.602;2022-11-15T00:27:34;5.00;1.00
30049;DHT22;16879;50.852;15.602;2022-11-15T00:30:00;5.00;1.00
30049;DHT22;16879;50.852;15.602;2022-11-15T00:32:26;4.90;1.00
30049;DHT22;16879;50.852;15.602;2022-11-15T00:34:51;4.90;1.00
30049;DHT22;16879;50.852;15.602;2022-11-15T00:56:45;4.70;99.90
30049;DHT22;16879;50.852;15.602;2022-11-15T00:59:10;4.70;1.00
30049;DHT22;16879;50.852;15.602;2022-11-15T01:01:36;4.60;1.00
30049;DHT22;16879;50.852;15.602;2022-11-15T01:04:02;4.60;1.00
30049;DHT22;16879;50.852;15.602;2022-11-15T01:06:27;4.60;1.00
30049;DHT22;16879;50.852;15.602;2022-11-15T01:30:48;4.20;1.00
30049;DHT22;16879;50.852;15.602;2022-11-15T01:33:13;4.20;1.00
30049;DHT22;16879;50.852;15.602;2022-11-15T01:47:50;4.00;1.00
30049;DHT22;16879;50.852;15.602;2022-11-15T01:50:19;4.00;1.00
30049;DHT22;16879;50.852;15.602;2022-11-15T02:02:31;3.90;82.40
30049;DHT22;16879;50.852;15.602;2022-11-15T02:04:57;3.90;47.70
30049;DHT22;16879;50.852;15.602;2022-11-15T02:35:04;3.90;99.90
30049;DHT22;16879;50.852;15.602;2022-11-15T02:37:37;3.80;99.90
30049;DHT22;16879;50.852;15.602;2022-11-15T02:40:13;3.80;99.90
30049;DHT22;16879;50.852;15.602;2022-11-15T02:42:50;3.80;99.90
30049;DHT22;16879;50.852;15.602;2022-11-15T02:55:32;3.50;1.00
30049;DHT22;16879;50.852;15.602;2022-11-15T03:03:18;3.40;1.00
30049;DHT22;16879;50.852;15.602;2022-11-15T03:23:06;3.20;1.00
30049;DHT22;16879;50.852;15.602;2022-11-15T03:35:18;3.10;1.00
30049;DHT22;16879;50.852;15.602;2022-11-15T03:40:10;3.10;1.00
30049;DHT22;16879;50.852;15.602;2022-11-15T03:47:32;3.10;99.90
30049;DHT22;16879;50.852;15.602;2022-11-15T03:50:02;3.00;99.90
30049;DHT22;16879;50.852;15.602;2022-11-15T03:52:31;3.00;99.90
30049;DHT22;16879;50.852;15.602;2022-11-15T03:54:58;3.00;99.90
30049;DHT22;16879;50.852;15.602;2022-11-15T04:04:43;2.80;99.90
30049;DHT22;16879;50.852;15.602;2022-11-15T04:07:09;2.80;99.90
30049;DHT22;16879;50.852;15.602;2022-11-15T04:09:34;2.70;99.90
30049;DHT22;16879;50.852;15.602;2022-11-15T04:12:20;2.70;99.90
30049;DHT22;16879;50.852;15.602;2022-11-15T04:19:59;2.50;1.00
30049;DHT22;16879;50.852;15.602;2022-11-15T04:22:44;2.50;99.90
30049;DHT22;16879;50.852;15.602;2022-11-15T04:25:28;2.50;99.90
30049;DHT22;16879;50.852;15.602;2022-11-15T04:27:54;2.50;1.00
30049;DHT22;16879;50.852;15.602;2022-11-15T04:30:19;2.50;1.00
30049;DHT22;16879;50.852;15.602;2022-11-15T04:40:03;2.30;99.90
30049;DHT22;16879;50.852;15.602;2022-11-15T04:44:58;2.20;37.10
30049;DHT22;16879;50.852;15.602;2022-11-15T04:47:23;2.20;99.90
30049;DHT22;16879;50.852;15.602;2022-11-15T04:57:08;2.30;99.90
30049;DHT22;16879;50.852;15.602;2022-11-15T05:04:25;2.30;1.00
30049;DHT22;16879;50.852;15.602;2022-11-15T05:06:51;2.30;1.00
30049;DHT22;16879;50.852;15.602;2022-11-15T05:11:46;2.20;1.00
30049;DHT22;16879;50.852;15.602;2022-11-15T05:16:38;2.20;1.00
30049;DHT22;16879;50.852;15.602;2022-11-15T05:19:04;2.30;1.00
30049;DHT22;16879;50.852;15.602;2022-11-15T05:21:31;2.30;44.70
30049;DHT22;16879;50.852;15.602;2022-11-15T05:23:56;2.30;99.90
30049;DHT22;16879;50.852;15.602;2022-11-15T05:28:55;2.30;99.90
30049;DHT22;16879;50.852;15.602;2022-11-15T05:33:48;2.20;38.20
30049;DHT22;16879;50.852;15.602;2022-11-15T05:38:52;2.20;1.00
30049;DHT22;16879;50.852;15.602;2022-11-15T05:41:18;2.10;1.00
30049;DHT22;16879;50.852;15.602;2022-11-15T05:43:46;2.10;1.00
30049;DHT22;16879;50.852;15.602;2022-11-15T05:46:13;2.10;1.00
30049;DHT22;16879;50.852;15.602;2022-11-15T05:55:57;2.00;1.00
30049;DHT22;16879;50.852;15.602;2022-11-15T05:58:23;2.10;1.00
30049;DHT22;16879;50.852;15.602;2022-11-15T06:00:49;2.10;1.00
30049;DHT22;16879;50.852;15.602;2022-11-15T06:05:40;2.00;1.00
30049;DHT22;16879;50.852;15.602;2022-11-15T06:08:06;2.00;1.00
30049;DHT22;16879;50.852;15.602;2022-11-15T06:10:32;2.00;1.00
30049;DHT22;16879;50.852;15.602;2022-11-15T06:13:01;2.00;1.00
30049;DHT22;16879;50.852;15.602;2022-11-15T06:15:28;1.90;1.00
30049;DHT22;16879;50.852;15.602;2022-11-15T06:17:56;1.90;1.00
30049;DHT22;16879;50.852;15.602;2022-11-15T06:27:43;1.80;1.00
30049;DHT22;16879;50.852;15.602;2022-11-15T06:30:08;1.80;99.90
30049;DHT22;16879;50.852;15.602;2022-11-15T06:32:34;1.80;99.90
30049;DHT22;16879;50.852;15.602;2022-11-15T06:35:00;1.80;99.90
30049;DHT22;16879;50.852;15.602;2022-11-15T06:37:26;1.80;99.90
30049;DHT22;16879;50.852;15.602;2022-11-15T06:42:17;1.80;99.90
30049;DHT22;16879;50.852;15.602;2022-11-15T06:54:27;1.80;99.90
30049;DHT22;16879;50.852;15.602;2022-11-15T06:59:19;1.90;1.00
30049;DHT22;16879;50.852;15.602;2022-11-15T07:01:44;1.90;1.00
30049;DHT22;16879;50.852;15.602;2022-11-15T07:04:10;2.00;1.00
30049;DHT22;16879;50.852;15.602;2022-11-15T07:06:36;2.00;1.00
30049;DHT22;16879;50.852;15.602;2022-11-15T07:13:53;2.20;1.00
30049;DHT22;16879;50.852;15.602;2022-11-15T07:21:12;2.30;1.00
30049;DHT22;16879;50.852;15.602;2022-11-15T07:23:38;2.30;1.00
30049;DHT22;16879;50.852;15.602;2022-11-15T07:26:04;2.30;1.00
30049;DHT22;16879;50.852;15.602;2022-11-15T07:28:30;2.30;1.00
30049;DHT22;16879;50.852;15.602;2022-11-15T07:30:55;2.40;1.00
30049;DHT22;16879;50.852;15.602;2022-11-15T07:33:21;2.40;1.00
30049;DHT22;16879;50.852;15.602;2022-11-15T07:35:47;2.40;1.00
30049;DHT22;16879;50.852;15.602;2022-11-15T07:38:16;2.50;1.00
30049;DHT22;16879;50.852;15.602;2022-11-15T07:43:10;2.60;1.00
30049;DHT22;16879;50.852;15.602;2022-11-15T07:45:40;2.60;99.90
30049;DHT22;16879;50.852;15.602;2022-11-15T07:50:31;2.80;1.00
30049;DHT22;16879;50.852;15.602;2022-11-15T07:55:24;3.00;1.00
30049;DHT22;16879;50.852;15.602;2022-11-15T07:57:50;3.10;1.00
30049;DHT22;16879;50.852;15.602;2022-11-15T08:00:15;3.10;1.00
30049;DHT22;16879;50.852;15.602;2022-11-15T08:05:07;3.30;1.00
30049;DHT22;16879;50.852;15.602;2022-11-15T08:07:33;3.40;1.00
30049;DHT22;16879;50.852;15.602;2022-11-15T08:12:27;3.50;47.90
30049;DHT22;16879;50.852;15.602;2022-11-15T08:14:54;3.60;1.00
30049;DHT22;16879;50.852;15.602;2022-11-15T08:17:21;3.60;1.00
30049;DHT22;16879;50.852;15.602;2022-11-15T08:19:47;3.60;1.00
30049;DHT22;16879;50.852;15.602;2022-11-15T08:22:13;3.70;46.80
30049;DHT22;16879;50.852;15.602;2022-11-15T08:24:39;3.80;95.30
30049;DHT22;16879;50.852;15.602;2022-11-15T08:27:05;3.80;99.90
30049;DHT22;16879;50.852;15.602;2022-11-15T08:29:30;3.90;99.90
30049;DHT22;16879;50.852;15.602;2022-11-15T08:31:56;3.90;99.90
30049;DHT22;16879;50.852;15.602;2022-11-15T08:34:21;4.00;99.90
30049;DHT22;16879;50.852;15.602;2022-11-15T08:36:47;4.10;99.90
30049;DHT22;16879;50.852;15.602;2022-11-15T08:39:13;4.20;99.90
30049;DHT22;16879;50.852;15.602;2022-11-15T08:41:39;4.30;99.90
30049;DHT22;16879;50.852;15.602;2022-11-15T08:44:04;4.30;99.90
30049;DHT22;16879;50.852;15.602;2022-11-15T08:46:30;4.40;99.90
30049;DHT22;16879;50.852;15.602;2022-11-15T08:48:56;4.50;99.90
30049;DHT22;16879;50.852;15.602;2022-11-15T08:51:21;4.60;99.90
30049;DHT22;16879;50.852;15.602;2022-11-15T08:53:47;4.70;99.90
30049;DHT22;16879;50.852;15.602;2022-11-15T08:56:13;4.70;99.90
30049;DHT22;16879;50.852;15.602;2022-11-15T09:01:06;4.90;99.90
30049;DHT22;16879;50.852;15.602;2022-11-15T09:03:32;5.00;99.90
30049;DHT22;16879;50.852;15.602;2022-11-15T09:05:58;5.10;99.90
30049;DHT22;16879;50.852;15.602;2022-11-15T09:08:24;5.10;99.90
30049;DHT22;16879;50.852;15.602;2022-11-15T09:10:50;5.20;99.90
30049;DHT22;16879;50.852;15.602;2022-11-15T09:13:16;5.30;99.90
30049;DHT22;16879;50.852;15.602;2022-11-15T09:15:42;5.50;99.90
30049;DHT22;16879;50.852;15.602;2022-11-15T09:18:08;5.50;99.90
30049;DHT22;16879;50.852;15.602;2022-11-15T09:20:33;5.60;99.90
30049;DHT22;16879;50.852;15.602;2022-11-15T09:23:00;5.70;32.30
30049;DHT22;16879;50.852;15.602;2022-11-15T09:25:26;5.80;2.10
30049;DHT22;16879;50.852;15.602;2022-11-15T09:27:52;5.80;1.00
30049;DHT22;16879;50.852;15.602;2022-11-15T09:30:18;6.00;1.00
30049;DHT22;16879;50.852;15.602;2022-11-15T09:32:43;6.10;1.00
30049;DHT22;16879;50.852;15.602;2022-11-15T09:35:09;6.20;1.00
30049;DHT22;16879;50.852;15.602;2022-11-15T09:37:35;6.20;1.00
30049;DHT22;16879;50.852;15.602;2022-11-15T09:40:00;6.40;1.00
30049;DHT22;16879;50.852;15.602;2022-11-15T09:50:48;6.70;99.90
30049;DHT22;16879;50.852;15.602;2022-11-15T09:53:13;6.80;99.90
30049;DHT22;16879;50.852;15.602;2022-11-15T09:55:50;6.80;99.90
30049;DHT22;16879;50.852;15.602;2022-11-15T09:58:26;6.90;99.90
30049;DHT22;16879;50.852;15.602;2022-11-15T10:00:57;6.90;99.90
30049;DHT22;16879;50.852;15.602;2022-11-15T10:03:28;7.10;15.00
30049;DHT22;16879;50.852;15.602;2022-11-15T10:05:55;7.20;1.00
30049;DHT22;16879;50.852;15.602;2022-11-15T10:08:28;7.30;1.00
30049;DHT22;16879;50.852;15.602;2022-11-15T10:11:06;7.40;1.00
30049;DHT22;16879;50.852;15.602;2022-11-15T10:13:33;7.50;1.00
30049;DHT22;16879;50.852;15.602;2022-11-15T10:18:35;7.60;1.00
30049;DHT22;16879;50.852;15.602;2022-11-15T10:21:14;7.60;99.90
30049;DHT22;16879;50.852;15.602;2022-11-15T10:23:40;7.60;99.90
30049;DHT22;16879;50.852;15.602;2022-11-15T10:26:07;7.80;99.90
30049;DHT22;16879;50.852;15.602;2022-11-15T10:28:34;7.80;99.90
30049;DHT22;16879;50.852;15.602;2022-11-15T10:31:00;7.90;43.90
30049;DHT22;16879;50.852;15.602;2022-11-15T10:41:15;8.20;1.00
30049;DHT22;16879;50.852;15.602;2022-11-15T10:43:42;8.10;1.00
30049;DHT22;16879;50.852;15.602;2022-11-15T10:46:20;8.20;99.90
30049;DHT22;16879;50.852;15.602;2022-11-15T10:48:46;8.30;99.90
30049;DHT22;16879;50.852;15.602;2022-11-15T10:51:22;8.40;99.90
30049;DHT22;16879;50.852;15.602;2022-11-15T10:53:54;8.50;1.00
30049;DHT22;16879;50.852;15.602;2022-11-15T10:56:22;8.50;1.00
30049;DHT22;16879;50.852;15.602;2022-11-15T10:58:51;8.60;1.00
30049;DHT22;16879;50.852;15.602;2022-11-15T11:01:27;8.70;1.00
30049;DHT22;16879;50.852;15.602;2022-11-15T11:04:04;8.80;99.90
30049;DHT22;16879;50.852;15.602;2022-11-15T11:06:30;8.80;99.90
30049;DHT22;16879;50.852;15.602;2022-11-15T11:08:57;8.90;1.00
30049;DHT22;16879;50.852;15.602;2022-11-15T11:11:23;9.00;1.00
30049;DHT22;16879;50.852;15.602;2022-11-15T11:13:49;9.10;1.00
30049;DHT22;16879;50.852;15.602;2022-11-15T11:21:10;9.30;99.90
30049;DHT22;16879;50.852;15.602;2022-11-15T11:29:11;9.40;1.00
30049;DHT22;16879;50.852;15.602;2022-11-15T11:34:50;9.60;1.00
30049;DHT22;16879;50.852;15.602;2022-11-15T11:45:43;9.90;99.90
30049;DHT22;16879;50.852;15.602;2022-11-15T11:48:13;9.90;99.90
30049;DHT22;16879;50.852;15.602;2022-11-15T11:50:40;10.00;86.60
30049;DHT22;16879;50.852;15.602;2022-11-15T11:55:55;10.20;15.90
30049;DHT22;16879;50.852;15.602;2022-11-15T12:03:44;10.50;1.00
30049;DHT22;16879;50.852;15.602;2022-11-15T12:13:46;10.90;1.00
30049;DHT22;16879;50.852;15.602;2022-11-15T12:18:44;11.10;1.00
30049;DHT22;16879;50.852;15.602;2022-11-15T12:23:55;11.30;1.00
30049;DHT22;16879;50.852;15.602;2022-11-15T12:26:25;11.50;99.90
30049;DHT22;16879;50.852;15.602;2022-11-15T12:28:52;11.70;99.90
30049;DHT22;16879;50.852;15.602;2022-11-15T12:33:48;11.90;99.90
30049;DHT22;16879;50.852;15.602;2022-11-15T12:41:16;12.30;99.90
30049;DHT22;16879;50.852;15.602;2022-11-15T12:43:45;12.30;99.90
30049;DHT22;16879;50.852;15.602;2022-11-15T12:46:12;12.30;99.90
30049;DHT22;16879;50.852;15.602;2022-11-15T12:51:04;12.60;74.60
30049;DHT22;16879;50.852;15.602;2022-11-15T12:53:31;12.60;1.00
30049;DHT22;16879;50.852;15.602;2022-11-15T12:58:39;12.90;1.00
30049;DHT22;16879;50.852;15.602;2022-11-15T13:01:06;13.00;1.00
30049;DHT22;16879;50.852;15.602;2022-11-15T13:03:32;13.00;1.00
30049;DHT22;16879;50.852;15.602;2022-11-15T13:05:59;13.10;9.20
30049;DHT22;16879;50.852;15.602;2022-11-15T13:14:34;13.20;1.00
30049;DHT22;16879;50.852;15.602;2022-11-15T13:16:56;13.40;1.00
30049;DHT22;16879;50.852;15.602;2022-11-15T13:19:23;13.80;1.00
30049;DHT22;16879;50.852;15.602;2022-11-15T13:21:49;14.00;1.00
30049;DHT22;16879;50.852;15.602;2022-11-15T13:24:37;14.20;1.00
30049;DHT22;16879;50.852;15.602;2022-11-15T13:27:17;14.50;1.00
30049;DHT22;16879;50.852;15.602;2022-11-15T13:29:44;14.80;1.00
30049;DHT22;16879;50.852;15.602;2022-11-15T13:32:13;14.90;83.30
30049;DHT22;16879;50.852;15.602;2022-11-15T13:34:39;15.40;99.90
30049;DHT22;16879;50.852;15.602;2022-11-15T13:39:46;15.70;99.90
30049;DHT22;16879;50.852;15.602;2022-11-15T13:42:19;15.80;99.90
30049;DHT22;16879;50.852;15.602;2022-11-15T13:45:00;15.90;99.90
30049;DHT22;16879;50.852;15.602;2022-11-15T13:47:29;16.20;99.90
30049;DHT22;16879;50.852;15.602;2022-11-15T13:49:57;16.30;99.90
30049;DHT22;16879;50.852;15.602;2022-11-15T13:52:24;16.40;99.90
30049;DHT22;16879;50.852;15.602;2022-11-15T13:54:55;16.50;99.90
30049;DHT22;16879;50.852;15.602;2022-11-15T13:57:30;16.60;99.90
30049;DHT22;16879;50.852;15.602;2022-11-15T14:00:03;16.50;1.00
30049;DHT22;16879;50.852;15.602;2022-11-15T14:02:30;16.20;1.00
30049;DHT22;16879;50.852;15.602;2022-11-15T14:04:57;15.80;99.90
30049;DHT22;16879;50.852;15.602;2022-11-15T14:07:26;15.00;99.90
30049;DHT22;16879;50.852;15.602;2022-11-15T14:09:53;14.70;99.90
30049;DHT22;16879;50.852;15.602;2022-11-15T14:12:28;14.10;99.90
30049;DHT22;16879;50.852;15.602;2022-11-15T14:14:55;13.70;99.90
30049;DHT22;16879;50.852;15.602;2022-11-15T14:19:58;13.10;99.90
30049;DHT22;16879;50.852;15.602;2022-11-15T14:22:26;12.90;56.10
30049;DHT22;16879;50.852;15.602;2022-11-15T14:27:37;12.40;99.90
30049;DHT22;16879;50.852;15.602;2022-11-15T14:30:03;12.20;1.00
30049;DHT22;16879;50.852;15.602;2022-11-15T14:32:30;12.00;1.00
30049;DHT22;16879;50.852;15.602;2022-11-15T14:35:02;11.80;1.00
30049;DHT22;16879;50.852;15.602;2022-11-15T14:37:32;11.60;1.00
30049;DHT22;16879;50.852;15.602;2022-11-15T14:40:00;11.40;1.00
30049;DHT22;16879;50.852;15.602;2022-11-15T14:42:26;11.30;1.00
30049;DHT22;16879;50.852;15.602;2022-11-15T14:44:52;11.10;1.00
30049;DHT22;16879;50.852;15.602;2022-11-15T14:47:18;10.90;1.00
30049;DHT22;16879;50.852;15.602;2022-11-15T14:49:44;10.80;1.00
30049;DHT22;16879;50.852;15.602;2022-11-15T14:54:41;10.60;1.00
30049;DHT22;16879;50.852;15.602;2022-11-15T14:57:06;10.50;1.00
30049;DHT22;16879;50.852;15.602;2022-11-15T14:59:32;10.30;1.00
30049;DHT22;16879;50.852;15.602;2022-11-15T15:01:57;10.20;1.70
30049;DHT22;16879;50.852;15.602;2022-11-15T15:04:24;10.10;99.90
30049;DHT22;16879;50.852;15.602;2022-11-15T15:06:50;9.90;99.90
30049;DHT22;16879;50.852;15.602;2022-11-15T15:09:15;9.90;99.90
30049;DHT22;16879;50.852;15.602;2022-11-15T15:11:41;9.80;99.90
30049;DHT22;16879;50.852;15.602;2022-11-15T15:14:07;9.60;1.00
30049;DHT22;16879;50.852;15.602;2022-11-15T15:18:59;9.50;1.00
30049;DHT22;16879;50.852;15.602;2022-11-15T15:21:27;9.40;1.00
30049;DHT22;16879;50.852;15.602;2022-11-15T15:26:20;9.20;1.00
30049;DHT22;16879;50.852;15.602;2022-11-15T15:31:13;9.00;1.00
30049;DHT22;16879;50.852;15.602;2022-11-15T15:33:39;8.90;1.00
30049;DHT22;16879;50.852;15.602;2022-11-15T15:36:12;8.80;1.00
30049;DHT22;16879;50.852;15.602;2022-11-15T15:38:49;8.70;1.00
30049;DHT22;16879;50.852;15.602;2022-11-15T15:41:15;8.60;8.20
30049;DHT22;16879;50.852;15.602;2022-11-15T15:43:41;8.50;99.90
30049;DHT22;16879;50.852;15.602;2022-11-15T15:46:10;8.40;99.90
30049;DHT22;16879;50.852;15.602;2022-11-15T15:48:37;8.40;99.90
30049;DHT22;16879;50.852;15.602;2022-11-15T15:51:05;8.30;99.90
30049;DHT22;16879;50.852;15.602;2022-11-15T15:55:57;8.10;99.90
30049;DHT22;16879;50.852;15.602;2022-11-15T15:58:22;8.10;1.00
30049;DHT22;16879;50.852;15.602;2022-11-15T16:00:48;8.10;1.00
30049;DHT22;16879;50.852;15.602;2022-11-15T16:03:14;8.00;1.00
30049;DHT22;16879;50.852;15.602;2022-11-15T16:05:39;7.90;1.00
30049;DHT22;16879;50.852;15.602;2022-11-15T16:08:05;7.80;1.00
30049;DHT22;16879;50.852;15.602;2022-11-15T16:10:31;7.80;1.00
30049;DHT22;16879;50.852;15.602;2022-11-15T16:12:57;7.70;1.00
30049;DHT22;16879;50.852;15.602;2022-11-15T16:20:29;7.50;1.00
30049;DHT22;16879;50.852;15.602;2022-11-15T16:22:54;7.50;1.00
30049;DHT22;16879;50.852;15.602;2022-11-15T16:27:46;7.40;26.90
30049;DHT22;16879;50.852;15.602;2022-11-15T16:30:12;7.30;99.90
30049;DHT22;16879;50.852;15.602;2022-11-15T16:32:39;7.30;99.90
30049;DHT22;16879;50.852;15.602;2022-11-15T16:52:16;7.20;99.90
30049;DHT22;16879;50.852;15.602;2022-11-15T16:57:09;6.90;99.90
30049;DHT22;16879;50.852;15.602;2022-11-15T16:59:35;7.20;1.00
30049;DHT22;16879;50.852;15.602;2022-11-15T17:02:01;6.80;1.00
30049;DHT22;16879;50.852;15.602;2022-11-15T17:09:24;6.80;1.00
30049;DHT22;16879;50.852;15.602;2022-11-15T17:19:15;6.30;1.00
30049;DHT22;16879;50.852;15.602;2022-11-15T17:21:42;6.20;1.00
30049;DHT22;16879;50.852;15.602;2022-11-15T17:33:58;6.10;1.00
30049;DHT22;16879;50.852;15.602;2022-11-15T17:38:50;6.00;1.00
30049;DHT22;16879;50.852;15.602;2022-11-15T17:41:17;6.10;1.00
30049;DHT22;16879;50.852;15.602;2022-11-15T17:43:46;6.20;1.00
30049;DHT22;16879;50.852;15.602;2022-11-15T17:46:21;6.00;99.90
30049;DHT22;16879;50.852;15.602;2022-11-15T17:48:47;6.00;99.90
30049;DHT22;16879;50.852;15.602;2022-11-15T17:51:15;6.10;99.90
30049;DHT22;16879;50.852;15.602;2022-11-15T17:53:43;6.00;99.90
30049;DHT22;16879;50.852;15.602;2022-11-15T18:01:18;6.00;99.90
30049;DHT22;16879;50.852;15.602;2022-11-15T18:18:33;5.90;1.00
30049;DHT22;16879;50.852;15.602;2022-11-15T18:23:28;5.90;1.00
30049;DHT22;16879;50.852;15.602;2022-11-15T18:40:32;6.20;1.00
30049;DHT22;16879;50.852;15.602;2022-11-15T18:50:16;5.50;1.00
30049;DHT22;16879;50.852;15.602;2022-11-15T18:55:08;5.20;1.00
30049;DHT22;16879;50.852;15.602;2022-11-15T18:57:35;5.80;1.00
30049;DHT22;16879;50.852;15.602;2022-11-15T19:00:02;6.00;1.00
30049;DHT22;16879;50.852;15.602;2022-11-15T19:07:20;5.30;1.00
30049;DHT22;16879;50.852;15.602;2022-11-15T19:14:39;5.80;1.00
30049;DHT22;16879;50.852;15.602;2022-11-15T19:21:57;6.30;1.00
30049;DHT22;16879;50.852;15.602;2022-11-15T19:24:24;5.80;1.00
30049;DHT22;16879;50.852;15.602;2022-11-15T19:26:51;5.90;1.00
30049;DHT22;16879;50.852;15.602;2022-11-15T19:31:43;5.30;4.80
30049;DHT22;16879;50.852;15.602;2022-11-15T19:39:11;5.60;1.00
30049;DHT22;16879;50.852;15.602;2022-11-15T19:41:39;5.70;1.00
30049;DHT22;16879;50.852;15.602;2022-11-15T20:45:50;5.30;1.00
30049;DHT22;16879;50.852;15.602;2022-11-15T20:58:08;5.20;1.00
30049;DHT22;16879;50.852;15.602;2022-11-15T21:03:02;4.90;1.00
30049;DHT22;16879;50.852;15.602;2022-11-15T21:05:38;5.00;1.00
30049;DHT22;16879;50.852;15.602;2022-11-15T21:08:04;5.00;1.00
30049;DHT22;16879;50.852;15.602;2022-11-15T21:13:15;5.00;1.00
30049;DHT22;16879;50.852;15.602;2022-11-15T21:18:07;5.00;1.00
30049;DHT22;16879;50.852;15.602;2022-11-15T21:20:33;4.80;1.00
30049;DHT22;16879;50.852;15.602;2022-11-15T21:22:59;4.60;1.00
30049;DHT22;16879;50.852;15.602;2022-11-15T21:27:51;4.20;1.00
30049;DHT22;16879;50.852;15.602;2022-11-15T22:04:48;4.00;99.90
30049;DHT22;16879;50.852;15.602;2022-11-15T22:07:14;4.50;99.90
30049;DHT22;16879;50.852;15.602;2022-11-15T22:09:40;4.20;99.90
30049;DHT22;16879;50.852;15.602;2022-11-15T22:56:39;4.80;1.00
30049;DHT22;16879;50.852;15.602;2022-11-15T22:59:05;4.50;99.90
30049;DHT22;16879;50.852;15.602;2022-11-15T23:03:57;3.90;1.00
30049;DHT22;16879;50.852;15.602;2022-11-15T23:06:23;4.60;1.00
30049;DHT22;16879;50.852;15.602;2022-11-15T23:16:26;3.90;1.00
30049;DHT22;16879;50.852;15.602;2022-11-15T23:19:04;3.80;1.00
30049;DHT22;16879;50.852;15.602;2022-11-15T23:48:59;3.50;1.00
